sensor_id;sensor_type;location;lat;lon;timestamp;P1;durP1;ratioP1;P2;durP2;ratioP2
23290;SDS011;11814;44.686;10.842;2023-12-07T00:01:58;36.42;;;26.25;;
23290;SDS011;11814;44.686;10.842;2023-12-07T00:04:24;38.33;;;26.35;;
23290;SDS011;11814;44.686;10.842;2023-12-07T00:06:50;33.83;;;24.85;;
23290;SDS011;11814;44.686;10.842;2023-12-07T00:09:15;33.63;;;25.15;;
23290;SDS011;11814;44.686;10.842;2023-12-07T00:11:41;40.22;;;27.83;;
23290;SDS011;11814;44.686;10.842;2023-12-07T00:14:06;41.63;;;27.52;;
23290;SDS011;11814;44.686;10.842;2023-12-07T00:16:32;35.45;;;26.35;;
23290;SDS011;11814;44.686;10.842;2023-12-07T00:18:58;38.97;;;26.05;;
23290;SDS011;11814;44.686;10.842;2023-12-07T00:21:23;38.88;;;26.10;;
23290;SDS011;11814;44.686;10.842;2023-12-07T00:23:49;42.30;;;27.15;;
23290;SDS011;11814;44.686;10.842;2023-12-07T00:26:14;38.83;;;26.73;;
23290;SDS011;11814;44.686;10.842;2023-12-07T00:28:40;37.53;;;26.75;;
23290;SDS011;11814;44.686;10.842;2023-12-07T00:31:06;34.53;;;25.27;;
23290;SDS011;11814;44.686;10.842;2023-12-07T00:33:33;40.38;;;27.10;;
23290;SDS011;11814;44.686;10.842;2023-12-07T00:35:58;42.67;;;28.27;;
23290;SDS011;11814;44.686;10.842;2023-12-07T00:38:24;37.28;;;27.00;;
23290;SDS011;11814;44.686;10.842;2023-12-07T00:40:50;40.90;;;29.40;;
23290;SDS011;11814;44.686;10.842;2023-12-07T00:43:15;40.85;;;27.65;;
23290;SDS011;11814;44.686;10.842;2023-12-07T00:45:42;38.50;;;27.02;;
23290;SDS011;11814;44.686;10.842;2023-12-07T00:48:07;39.55;;;27.30;;
23290;SDS011;11814;44.686;10.842;2023-12-07T00:50:33;41.25;;;27.65;;
23290;SDS011;11814;44.686;10.842;2023-12-07T00:52:59;39.95;;;27.90;;
23290;SDS011;11814;44.686;10.842;2023-12-07T00:55:24;41.83;;;26.08;;
23290;SDS011;11814;44.686;10.842;2023-12-07T00:57:50;38.38;;;26.65;;
23290;SDS011;11814;44.686;10.842;2023-12-07T01:00:15;37.47;;;25.38;;
23290;SDS011;11814;44.686;10.842;2023-12-07T01:02:41;37.13;;;25.88;;
23290;SDS011;11814;44.686;10.842;2023-12-07T01:05:07;39.17;;;26.88;;
23290;SDS011;11814;44.686;10.842;2023-12-07T01:07:33;35.17;;;26.45;;
23290;SDS011;11814;44.686;10.842;2023-12-07T01:09:59;35.97;;;26.35;;
23290;SDS011;11814;44.686;10.842;2023-12-07T01:12:25;40.83;;;27.35;;
23290;SDS011;11814;44.686;10.842;2023-12-07T01:14:50;37.95;;;26.90;;
23290;SDS011;11814;44.686;10.842;2023-12-07T01:17:16;36.40;;;26.25;;
23290;SDS011;11814;44.686;10.842;2023-12-07T01:19:42;35.45;;;25.25;;
23290;SDS011;11814;44.686;10.842;2023-12-07T01:22:08;40.25;;;25.65;;
23290;SDS011;11814;44.686;10.842;2023-12-07T01:24:34;39.75;;;27.33;;
23290;SDS011;11814;44.686;10.842;2023-12-07T01:26:59;41.33;;;26.77;;
23290;SDS011;11814;44.686;10.842;2023-12-07T01:29:25;42.42;;;27.17;;
23290;SDS011;11814;44.686;10.842;2023-12-07T01:31:51;40.15;;;26.48;;
23290;SDS011;11814;44.686;10.842;2023-12-07T01:34:17;43.40;;;26.60;;
23290;SDS011;11814;44.686;10.842;2023-12-07T01:36:43;43.20;;;27.45;;
23290;SDS011;11814;44.686;10.842;2023-12-07T01:39:09;44.25;;;28.55;;
23290;SDS011;11814;44.686;10.842;2023-12-07T01:41:37;38.90;;;26.73;;
23290;SDS011;11814;44.686;10.842;2023-12-07T01:44:04;37.83;;;25.00;;
23290;SDS011;11814;44.686;10.842;2023-12-07T01:46:29;39.22;;;25.63;;
23290;SDS011;11814;44.686;10.842;2023-12-07T01:48:56;37.47;;;24.88;;
23290;SDS011;11814;44.686;10.842;2023-12-07T01:51:21;37.45;;;25.13;;
23290;SDS011;11814;44.686;10.842;2023-12-07T01:53:47;37.38;;;24.92;;
23290;SDS011;11814;44.686;10.842;2023-12-07T01:56:14;39.85;;;25.73;;
23290;SDS011;11814;44.686;10.842;2023-12-07T01:58:41;41.10;;;25.92;;
23290;SDS011;11814;44.686;10.842;2023-12-07T02:01:07;35.67;;;23.02;;
23290;SDS011;11814;44.686;10.842;2023-12-07T02:03:34;34.80;;;23.58;;
23290;SDS011;11814;44.686;10.842;2023-12-07T02:05:59;34.78;;;24.52;;
23290;SDS011;11814;44.686;10.842;2023-12-07T02:08:27;35.30;;;24.35;;
23290;SDS011;11814;44.686;10.842;2023-12-07T02:10:53;35.15;;;23.40;;
23290;SDS011;11814;44.686;10.842;2023-12-07T02:13:19;35.92;;;23.50;;
23290;SDS011;11814;44.686;10.842;2023-12-07T02:15:46;35.80;;;23.75;;
23290;SDS011;11814;44.686;10.842;2023-12-07T02:18:16;33.30;;;22.67;;
23290;SDS011;11814;44.686;10.842;2023-12-07T02:20:52;32.25;;;22.23;;
23290;SDS011;11814;44.686;10.842;2023-12-07T02:23:27;33.47;;;22.75;;
23290;SDS011;11814;44.686;10.842;2023-12-07T02:25:54;30.42;;;20.80;;
23290;SDS011;11814;44.686;10.842;2023-12-07T02:28:22;32.63;;;20.70;;
23290;SDS011;11814;44.686;10.842;2023-12-07T02:30:48;31.40;;;20.20;;
23290;SDS011;11814;44.686;10.842;2023-12-07T02:33:13;28.27;;;19.15;;
23290;SDS011;11814;44.686;10.842;2023-12-07T02:35:40;26.50;;;19.38;;
23290;SDS011;11814;44.686;10.842;2023-12-07T02:38:07;27.13;;;19.13;;
23290;SDS011;11814;44.686;10.842;2023-12-07T02:40:33;26.55;;;18.40;;
23290;SDS011;11814;44.686;10.842;2023-12-07T02:42:59;30.70;;;19.17;;
23290;SDS011;11814;44.686;10.842;2023-12-07T02:45:26;25.80;;;17.15;;
23290;SDS011;11814;44.686;10.842;2023-12-07T02:47:52;23.33;;;16.13;;
23290;SDS011;11814;44.686;10.842;2023-12-07T02:50:18;24.75;;;16.98;;
23290;SDS011;11814;44.686;10.842;2023-12-07T02:52:44;24.95;;;16.73;;
23290;SDS011;11814;44.686;10.842;2023-12-07T02:55:09;24.52;;;16.17;;
23290;SDS011;11814;44.686;10.842;2023-12-07T02:57:35;22.88;;;15.75;;
23290;SDS011;11814;44.686;10.842;2023-12-07T03:00:02;22.17;;;15.77;;
23290;SDS011;11814;44.686;10.842;2023-12-07T03:02:32;20.52;;;14.43;;
23290;SDS011;11814;44.686;10.842;2023-12-07T03:04:59;20.45;;;14.77;;
23290;SDS011;11814;44.686;10.842;2023-12-07T03:07:24;20.63;;;13.93;;
23290;SDS011;11814;44.686;10.842;2023-12-07T03:09:50;18.63;;;13.27;;
23290;SDS011;11814;44.686;10.842;2023-12-07T03:12:15;20.83;;;14.65;;
23290;SDS011;11814;44.686;10.842;2023-12-07T03:14:41;21.55;;;14.80;;
23290;SDS011;11814;44.686;10.842;2023-12-07T03:17:07;19.65;;;14.27;;
23290;SDS011;11814;44.686;10.842;2023-12-07T03:19:32;22.20;;;15.00;;
23290;SDS011;11814;44.686;10.842;2023-12-07T03:21:58;21.88;;;14.95;;
23290;SDS011;11814;44.686;10.842;2023-12-07T03:24:23;22.98;;;15.45;;
23290;SDS011;11814;44.686;10.842;2023-12-07T03:26:49;23.38;;;14.65;;
23290;SDS011;11814;44.686;10.842;2023-12-07T03:29:15;19.17;;;14.48;;
23290;SDS011;11814;44.686;10.842;2023-12-07T03:31:41;19.98;;;13.77;;
23290;SDS011;11814;44.686;10.842;2023-12-07T03:34:06;23.25;;;14.43;;
23290;SDS011;11814;44.686;10.842;2023-12-07T03:36:32;23.55;;;15.05;;
23290;SDS011;11814;44.686;10.842;2023-12-07T03:38:57;22.27;;;15.13;;
23290;SDS011;11814;44.686;10.842;2023-12-07T03:41:23;21.92;;;15.10;;
23290;SDS011;11814;44.686;10.842;2023-12-07T03:43:49;22.77;;;15.93;;
23290;SDS011;11814;44.686;10.842;2023-12-07T03:46:14;25.17;;;15.95;;
23290;SDS011;11814;44.686;10.842;2023-12-07T03:48:40;22.13;;;14.70;;
23290;SDS011;11814;44.686;10.842;2023-12-07T03:51:06;23.00;;;15.00;;
23290;SDS011;11814;44.686;10.842;2023-12-07T03:53:31;20.15;;;13.82;;
23290;SDS011;11814;44.686;10.842;2023-12-07T03:55:57;19.10;;;13.25;;
23290;SDS011;11814;44.686;10.842;2023-12-07T03:58:23;16.00;;;11.73;;
23290;SDS011;11814;44.686;10.842;2023-12-07T04:00:48;17.77;;;11.43;;
23290;SDS011;11814;44.686;10.842;2023-12-07T04:03:14;17.80;;;12.55;;
23290;SDS011;11814;44.686;10.842;2023-12-07T04:05:39;18.77;;;13.15;;
23290;SDS011;11814;44.686;10.842;2023-12-07T04:08:05;18.92;;;12.68;;
23290;SDS011;11814;44.686;10.842;2023-12-07T04:10:31;20.23;;;12.88;;
23290;SDS011;11814;44.686;10.842;2023-12-07T04:12:57;18.60;;;12.40;;
23290;SDS011;11814;44.686;10.842;2023-12-07T04:15:22;18.88;;;12.48;;
23290;SDS011;11814;44.686;10.842;2023-12-07T04:17:48;17.80;;;13.02;;
23290;SDS011;11814;44.686;10.842;2023-12-07T04:20:14;17.50;;;11.70;;
23290;SDS011;11814;44.686;10.842;2023-12-07T04:22:40;18.17;;;11.82;;
23290;SDS011;11814;44.686;10.842;2023-12-07T04:25:06;31.33;;;24.90;;
23290;SDS011;11814;44.686;10.842;2023-12-07T04:27:33;24.67;;;17.95;;
23290;SDS011;11814;44.686;10.842;2023-12-07T04:29:58;18.30;;;12.93;;
23290;SDS011;11814;44.686;10.842;2023-12-07T04:32:24;17.63;;;10.93;;
23290;SDS011;11814;44.686;10.842;2023-12-07T04:34:51;16.17;;;11.82;;
23290;SDS011;11814;44.686;10.842;2023-12-07T04:37:17;16.50;;;11.30;;
23290;SDS011;11814;44.686;10.842;2023-12-07T04:39:42;20.67;;;11.65;;
23290;SDS011;11814;44.686;10.842;2023-12-07T04:42:08;13.60;;;10.15;;
23290;SDS011;11814;44.686;10.842;2023-12-07T04:44:34;18.75;;;13.43;;
23290;SDS011;11814;44.686;10.842;2023-12-07T04:46:59;19.08;;;12.38;;
23290;SDS011;11814;44.686;10.842;2023-12-07T04:49:25;17.42;;;12.43;;
23290;SDS011;11814;44.686;10.842;2023-12-07T04:51:51;18.73;;;12.32;;
23290;SDS011;11814;44.686;10.842;2023-12-07T04:54:17;17.88;;;12.48;;
23290;SDS011;11814;44.686;10.842;2023-12-07T04:56:42;16.58;;;11.70;;
23290;SDS011;11814;44.686;10.842;2023-12-07T04:59:09;19.98;;;11.90;;
23290;SDS011;11814;44.686;10.842;2023-12-07T05:01:38;14.70;;;10.60;;
23290;SDS011;11814;44.686;10.842;2023-12-07T05:04:04;16.05;;;10.77;;
23290;SDS011;11814;44.686;10.842;2023-12-07T05:06:33;19.92;;;11.77;;
23290;SDS011;11814;44.686;10.842;2023-12-07T05:08:59;20.13;;;11.40;;
23290;SDS011;11814;44.686;10.842;2023-12-07T05:11:24;15.23;;;11.13;;
23290;SDS011;11814;44.686;10.842;2023-12-07T05:13:50;17.17;;;11.02;;
23290;SDS011;11814;44.686;10.842;2023-12-07T05:16:16;17.95;;;11.10;;
23290;SDS011;11814;44.686;10.842;2023-12-07T05:18:42;14.43;;;10.75;;
23290;SDS011;11814;44.686;10.842;2023-12-07T05:21:09;15.18;;;11.00;;
23290;SDS011;11814;44.686;10.842;2023-12-07T05:23:34;14.05;;;10.38;;
23290;SDS011;11814;44.686;10.842;2023-12-07T05:26:00;13.55;;;10.27;;
23290;SDS011;11814;44.686;10.842;2023-12-07T05:28:26;13.90;;;9.98;;
23290;SDS011;11814;44.686;10.842;2023-12-07T05:30:52;14.60;;;10.50;;
23290;SDS011;11814;44.686;10.842;2023-12-07T05:33:18;15.88;;;11.55;;
23290;SDS011;11814;44.686;10.842;2023-12-07T05:35:46;15.25;;;10.95;;
23290;SDS011;11814;44.686;10.842;2023-12-07T05:38:13;16.70;;;12.02;;
23290;SDS011;11814;44.686;10.842;2023-12-07T05:40:38;15.40;;;11.15;;
23290;SDS011;11814;44.686;10.842;2023-12-07T05:43:04;18.08;;;13.20;;
23290;SDS011;11814;44.686;10.842;2023-12-07T05:45:30;20.75;;;13.05;;
23290;SDS011;11814;44.686;10.842;2023-12-07T05:47:55;19.13;;;13.43;;
23290;SDS011;11814;44.686;10.842;2023-12-07T05:50:22;17.33;;;13.10;;
23290;SDS011;11814;44.686;10.842;2023-12-07T05:52:47;23.98;;;13.75;;
23290;SDS011;11814;44.686;10.842;2023-12-07T05:55:13;17.17;;;13.15;;
23290;SDS011;11814;44.686;10.842;2023-12-07T05:57:39;23.58;;;17.58;;
23290;SDS011;11814;44.686;10.842;2023-12-07T06:00:05;16.65;;;11.80;;
23290;SDS011;11814;44.686;10.842;2023-12-07T06:02:35;19.27;;;12.43;;
23290;SDS011;11814;44.686;10.842;2023-12-07T06:05:01;17.80;;;12.45;;
23290;SDS011;11814;44.686;10.842;2023-12-07T06:07:29;21.73;;;12.93;;
23290;SDS011;11814;44.686;10.842;2023-12-07T06:09:54;16.67;;;12.35;;
23290;SDS011;11814;44.686;10.842;2023-12-07T06:12:20;20.05;;;12.60;;
23290;SDS011;11814;44.686;10.842;2023-12-07T06:14:47;13.90;;;10.43;;
23290;SDS011;11814;44.686;10.842;2023-12-07T06:17:13;24.35;;;11.32;;
23290;SDS011;11814;44.686;10.842;2023-12-07T06:19:38;21.95;;;11.73;;
23290;SDS011;11814;44.686;10.842;2023-12-07T06:22:04;17.88;;;11.50;;
23290;SDS011;11814;44.686;10.842;2023-12-07T06:24:31;19.38;;;11.68;;
23290;SDS011;11814;44.686;10.842;2023-12-07T06:26:57;15.27;;;11.70;;
23290;SDS011;11814;44.686;10.842;2023-12-07T06:29:23;16.48;;;11.40;;
23290;SDS011;11814;44.686;10.842;2023-12-07T06:31:49;21.60;;;12.20;;
23290;SDS011;11814;44.686;10.842;2023-12-07T06:34:14;17.75;;;13.07;;
23290;SDS011;11814;44.686;10.842;2023-12-07T06:36:40;15.30;;;12.02;;
23290;SDS011;11814;44.686;10.842;2023-12-07T06:39:05;19.35;;;11.85;;
23290;SDS011;11814;44.686;10.842;2023-12-07T06:41:31;15.98;;;11.40;;
23290;SDS011;11814;44.686;10.842;2023-12-07T06:43:58;18.58;;;11.95;;
23290;SDS011;11814;44.686;10.842;2023-12-07T06:46:23;16.40;;;10.95;;
23290;SDS011;11814;44.686;10.842;2023-12-07T06:48:49;14.35;;;9.15;;
23290;SDS011;11814;44.686;10.842;2023-12-07T06:51:15;18.98;;;10.73;;
23290;SDS011;11814;44.686;10.842;2023-12-07T06:53:41;18.58;;;10.35;;
23290;SDS011;11814;44.686;10.842;2023-12-07T06:56:07;14.52;;;10.23;;
23290;SDS011;11814;44.686;10.842;2023-12-07T06:58:33;14.57;;;9.55;;
23290;SDS011;11814;44.686;10.842;2023-12-07T07:00:59;15.73;;;9.77;;
23290;SDS011;11814;44.686;10.842;2023-12-07T07:03:24;24.65;;;11.15;;
23290;SDS011;11814;44.686;10.842;2023-12-07T07:05:52;20.83;;;9.73;;
23290;SDS011;11814;44.686;10.842;2023-12-07T07:08:19;16.60;;;10.52;;
23290;SDS011;11814;44.686;10.842;2023-12-07T07:10:44;13.48;;;10.95;;
23290;SDS011;11814;44.686;10.842;2023-12-07T07:13:11;23.05;;;12.50;;
23290;SDS011;11814;44.686;10.842;2023-12-07T07:15:41;15.52;;;12.00;;
23290;SDS011;11814;44.686;10.842;2023-12-07T07:18:07;19.17;;;11.65;;
23290;SDS011;11814;44.686;10.842;2023-12-07T07:20:33;24.38;;;12.40;;
23290;SDS011;11814;44.686;10.842;2023-12-07T07:22:59;18.50;;;12.23;;
23290;SDS011;11814;44.686;10.842;2023-12-07T07:25:24;17.83;;;10.77;;
23290;SDS011;11814;44.686;10.842;2023-12-07T07:27:50;20.98;;;12.45;;
23290;SDS011;11814;44.686;10.842;2023-12-07T07:30:17;14.10;;;11.38;;
23290;SDS011;11814;44.686;10.842;2023-12-07T07:32:43;15.25;;;11.00;;
23290;SDS011;11814;44.686;10.842;2023-12-07T07:35:08;19.50;;;10.57;;
23290;SDS011;11814;44.686;10.842;2023-12-07T07:37:36;16.77;;;10.13;;
23290;SDS011;11814;44.686;10.842;2023-12-07T07:40:03;17.65;;;9.27;;
23290;SDS011;11814;44.686;10.842;2023-12-07T07:42:32;17.40;;;8.90;;
23290;SDS011;11814;44.686;10.842;2023-12-07T07:44:58;15.85;;;8.82;;
23290;SDS011;11814;44.686;10.842;2023-12-07T07:47:23;12.57;;;8.20;;
23290;SDS011;11814;44.686;10.842;2023-12-07T07:49:49;15.10;;;7.82;;
23290;SDS011;11814;44.686;10.842;2023-12-07T07:52:15;17.33;;;7.78;;
23290;SDS011;11814;44.686;10.842;2023-12-07T07:54:41;12.43;;;7.07;;
23290;SDS011;11814;44.686;10.842;2023-12-07T07:57:07;11.10;;;7.43;;
23290;SDS011;11814;44.686;10.842;2023-12-07T07:59:33;8.20;;;6.85;;
23290;SDS011;11814;44.686;10.842;2023-12-07T08:01:59;10.98;;;5.72;;
23290;SDS011;11814;44.686;10.842;2023-12-07T08:04:25;7.85;;;5.00;;
23290;SDS011;11814;44.686;10.842;2023-12-07T08:06:50;9.80;;;5.63;;
23290;SDS011;11814;44.686;10.842;2023-12-07T08:09:16;9.80;;;5.80;;
23290;SDS011;11814;44.686;10.842;2023-12-07T08:11:41;11.20;;;6.80;;
23290;SDS011;11814;44.686;10.842;2023-12-07T08:14:07;13.68;;;8.00;;
23290;SDS011;11814;44.686;10.842;2023-12-07T08:16:33;50.03;;;24.95;;
23290;SDS011;11814;44.686;10.842;2023-12-07T08:18:59;21.50;;;10.13;;
23290;SDS011;11814;44.686;10.842;2023-12-07T08:21:25;14.77;;;8.75;;
23290;SDS011;11814;44.686;10.842;2023-12-07T08:23:51;139.50;;;79.88;;
23290;SDS011;11814;44.686;10.842;2023-12-07T08:26:17;16.65;;;9.10;;
23290;SDS011;11814;44.686;10.842;2023-12-07T08:28:43;14.85;;;7.88;;
23290;SDS011;11814;44.686;10.842;2023-12-07T08:31:09;18.27;;;9.02;;
23290;SDS011;11814;44.686;10.842;2023-12-07T08:33:35;18.35;;;8.25;;
23290;SDS011;11814;44.686;10.842;2023-12-07T08:36:03;13.10;;;7.28;;
23290;SDS011;11814;44.686;10.842;2023-12-07T08:38:29;17.52;;;8.57;;
23290;SDS011;11814;44.686;10.842;2023-12-07T08:40:55;15.48;;;7.97;;
23290;SDS011;11814;44.686;10.842;2023-12-07T08:43:23;12.05;;;8.13;;
23290;SDS011;11814;44.686;10.842;2023-12-07T08:45:50;14.60;;;8.68;;
23290;SDS011;11814;44.686;10.842;2023-12-07T08:48:16;16.63;;;9.27;;
23290;SDS011;11814;44.686;10.842;2023-12-07T08:50:41;17.60;;;9.05;;
23290;SDS011;11814;44.686;10.842;2023-12-07T08:53:07;15.65;;;8.60;;
23290;SDS011;11814;44.686;10.842;2023-12-07T08:55:32;17.02;;;8.82;;
23290;SDS011;11814;44.686;10.842;2023-12-07T08:57:58;15.38;;;8.77;;
23290;SDS011;11814;44.686;10.842;2023-12-07T09:00:25;19.65;;;9.85;;
23290;SDS011;11814;44.686;10.842;2023-12-07T09:02:51;12.93;;;7.57;;
23290;SDS011;11814;44.686;10.842;2023-12-07T09:05:17;12.15;;;7.88;;
23290;SDS011;11814;44.686;10.842;2023-12-07T09:07:43;14.35;;;7.88;;
23290;SDS011;11814;44.686;10.842;2023-12-07T09:10:09;10.63;;;6.47;;
23290;SDS011;11814;44.686;10.842;2023-12-07T09:12:35;10.07;;;6.63;;
23290;SDS011;11814;44.686;10.842;2023-12-07T09:15:02;9.82;;;6.32;;
23290;SDS011;11814;44.686;10.842;2023-12-07T09:17:28;10.02;;;6.10;;
23290;SDS011;11814;44.686;10.842;2023-12-07T09:19:54;9.52;;;6.13;;
23290;SDS011;11814;44.686;10.842;2023-12-07T09:22:20;8.52;;;6.00;;
23290;SDS011;11814;44.686;10.842;2023-12-07T09:24:46;9.20;;;5.43;;
23290;SDS011;11814;44.686;10.842;2023-12-07T09:27:15;8.95;;;5.72;;
23290;SDS011;11814;44.686;10.842;2023-12-07T09:29:40;12.07;;;6.25;;
23290;SDS011;11814;44.686;10.842;2023-12-07T09:32:07;10.55;;;7.15;;
23290;SDS011;11814;44.686;10.842;2023-12-07T09:34:32;13.95;;;7.45;;
23290;SDS011;11814;44.686;10.842;2023-12-07T09:37:08;11.63;;;7.18;;
23290;SDS011;11814;44.686;10.842;2023-12-07T09:39:35;15.80;;;7.28;;
23290;SDS011;11814;44.686;10.842;2023-12-07T09:42:00;9.93;;;6.35;;
23290;SDS011;11814;44.686;10.842;2023-12-07T09:44:27;13.32;;;6.50;;
23290;SDS011;11814;44.686;10.842;2023-12-07T09:46:52;12.52;;;7.20;;
23290;SDS011;11814;44.686;10.842;2023-12-07T09:49:19;11.73;;;7.18;;
23290;SDS011;11814;44.686;10.842;2023-12-07T09:51:46;10.48;;;7.55;;
23290;SDS011;11814;44.686;10.842;2023-12-07T09:54:12;13.98;;;8.30;;
23290;SDS011;11814;44.686;10.842;2023-12-07T09:56:38;13.77;;;8.52;;
23290;SDS011;11814;44.686;10.842;2023-12-07T09:59:04;15.18;;;9.10;;
23290;SDS011;11814;44.686;10.842;2023-12-07T10:01:32;12.80;;;9.52;;
23290;SDS011;11814;44.686;10.842;2023-12-07T10:06:45;15.85;;;11.13;;
23290;SDS011;11814;44.686;10.842;2023-12-07T10:09:12;19.48;;;11.07;;
23290;SDS011;11814;44.686;10.842;2023-12-07T10:11:39;17.08;;;11.38;;
23290;SDS011;11814;44.686;10.842;2023-12-07T10:14:08;17.75;;;11.77;;
23290;SDS011;11814;44.686;10.842;2023-12-07T10:16:34;25.60;;;12.32;;
23290;SDS011;11814;44.686;10.842;2023-12-07T10:19:16;16.67;;;11.25;;
23290;SDS011;11814;44.686;10.842;2023-12-07T10:21:50;18.25;;;11.00;;
23290;SDS011;11814;44.686;10.842;2023-12-07T10:24:17;19.45;;;11.00;;
23290;SDS011;11814;44.686;10.842;2023-12-07T10:26:47;13.25;;;10.80;;
23290;SDS011;11814;44.686;10.842;2023-12-07T10:29:14;14.13;;;10.68;;
23290;SDS011;11814;44.686;10.842;2023-12-07T10:31:42;18.67;;;10.98;;
23290;SDS011;11814;44.686;10.842;2023-12-07T10:34:09;17.13;;;11.40;;
23290;SDS011;11814;44.686;10.842;2023-12-07T10:36:35;115.75;;;36.80;;
23290;SDS011;11814;44.686;10.842;2023-12-07T10:39:01;17.13;;;11.70;;
23290;SDS011;11814;44.686;10.842;2023-12-07T10:41:31;19.17;;;11.73;;
23290;SDS011;11814;44.686;10.842;2023-12-07T10:43:59;26.92;;;16.33;;
23290;SDS011;11814;44.686;10.842;2023-12-07T10:46:26;17.90;;;12.02;;
23290;SDS011;11814;44.686;10.842;2023-12-07T10:49:03;16.80;;;10.45;;
23290;SDS011;11814;44.686;10.842;2023-12-07T10:51:42;24.23;;;14.88;;
23290;SDS011;11814;44.686;10.842;2023-12-07T10:54:15;18.30;;;14.90;;
23290;SDS011;11814;44.686;10.842;2023-12-07T10:56:46;54.15;;;40.67;;
23290;SDS011;11814;44.686;10.842;2023-12-07T10:59:14;18.70;;;13.15;;
23290;SDS011;11814;44.686;10.842;2023-12-07T11:01:41;23.92;;;12.82;;
23290;SDS011;11814;44.686;10.842;2023-12-07T11:04:12;18.05;;;12.10;;
23290;SDS011;11814;44.686;10.842;2023-12-07T11:06:42;16.15;;;11.90;;
23290;SDS011;11814;44.686;10.842;2023-12-07T11:09:15;17.75;;;12.90;;
23290;SDS011;11814;44.686;10.842;2023-12-07T11:12:02;35.50;;;27.52;;
23290;SDS011;11814;44.686;10.842;2023-12-07T11:14:35;52.45;;;27.30;;
23290;SDS011;11814;44.686;10.842;2023-12-07T11:17:03;14.60;;;12.15;;
23290;SDS011;11814;44.686;10.842;2023-12-07T11:21:57;15.60;;;11.18;;
23290;SDS011;11814;44.686;10.842;2023-12-07T11:24:26;13.75;;;10.82;;
23290;SDS011;11814;44.686;10.842;2023-12-07T11:26:52;14.80;;;9.85;;
23290;SDS011;11814;44.686;10.842;2023-12-07T11:29:21;12.27;;;10.15;;
23290;SDS011;11814;44.686;10.842;2023-12-07T11:31:49;14.10;;;11.50;;
23290;SDS011;11814;44.686;10.842;2023-12-07T11:34:37;12.88;;;11.07;;
23290;SDS011;11814;44.686;10.842;2023-12-07T11:37:08;18.48;;;12.77;;
23290;SDS011;11814;44.686;10.842;2023-12-07T11:39:34;17.33;;;12.23;;
23290;SDS011;11814;44.686;10.842;2023-12-07T11:42:11;15.57;;;13.30;;
23290;SDS011;11814;44.686;10.842;2023-12-07T11:44:38;20.02;;;13.02;;
23290;SDS011;11814;44.686;10.842;2023-12-07T11:47:06;16.90;;;13.85;;
23290;SDS011;11814;44.686;10.842;2023-12-07T11:49:32;18.45;;;13.80;;
23290;SDS011;11814;44.686;10.842;2023-12-07T11:51:58;20.45;;;15.27;;
23290;SDS011;11814;44.686;10.842;2023-12-07T11:54:27;16.13;;;14.18;;
23290;SDS011;11814;44.686;10.842;2023-12-07T11:56:53;19.73;;;14.45;;
23290;SDS011;11814;44.686;10.842;2023-12-07T11:59:19;21.83;;;14.60;;
23290;SDS011;11814;44.686;10.842;2023-12-07T12:01:46;17.10;;;14.38;;
23290;SDS011;11814;44.686;10.842;2023-12-07T12:04:13;17.27;;;14.70;;
23290;SDS011;11814;44.686;10.842;2023-12-07T12:06:40;17.23;;;13.65;;
23290;SDS011;11814;44.686;10.842;2023-12-07T12:09:08;17.77;;;13.95;;
23290;SDS011;11814;44.686;10.842;2023-12-07T12:11:35;17.00;;;13.45;;
23290;SDS011;11814;44.686;10.842;2023-12-07T12:14:01;16.13;;;13.45;;
23290;SDS011;11814;44.686;10.842;2023-12-07T12:16:27;15.75;;;13.40;;
23290;SDS011;11814;44.686;10.842;2023-12-07T12:18:53;15.68;;;13.18;;
23290;SDS011;11814;44.686;10.842;2023-12-07T12:21:19;17.88;;;14.15;;
23290;SDS011;11814;44.686;10.842;2023-12-07T12:23:47;17.17;;;14.73;;
23290;SDS011;11814;44.686;10.842;2023-12-07T12:26:13;17.15;;;14.55;;
23290;SDS011;11814;44.686;10.842;2023-12-07T12:28:41;17.50;;;14.20;;
23290;SDS011;11814;44.686;10.842;2023-12-07T12:31:09;16.88;;;14.40;;
23290;SDS011;11814;44.686;10.842;2023-12-07T12:33:37;17.75;;;14.38;;
23290;SDS011;11814;44.686;10.842;2023-12-07T12:36:04;16.85;;;14.15;;
23290;SDS011;11814;44.686;10.842;2023-12-07T12:38:32;16.00;;;13.88;;
23290;SDS011;11814;44.686;10.842;2023-12-07T12:40:58;17.55;;;13.85;;
23290;SDS011;11814;44.686;10.842;2023-12-07T12:43:23;14.43;;;12.82;;
23290;SDS011;11814;44.686;10.842;2023-12-07T12:45:49;15.15;;;13.05;;
23290;SDS011;11814;44.686;10.842;2023-12-07T12:48:15;32.17;;;18.50;;
23290;SDS011;11814;44.686;10.842;2023-12-07T12:50:41;18.05;;;13.27;;
23290;SDS011;11814;44.686;10.842;2023-12-07T12:53:07;17.30;;;11.95;;
23290;SDS011;11814;44.686;10.842;2023-12-07T12:55:38;18.70;;;12.57;;
23290;SDS011;11814;44.686;10.842;2023-12-07T12:58:08;18.10;;;12.77;;
23290;SDS011;11814;44.686;10.842;2023-12-07T13:00:34;15.43;;;13.20;;
23290;SDS011;11814;44.686;10.842;2023-12-07T13:03:04;19.30;;;14.32;;
23290;SDS011;11814;44.686;10.842;2023-12-07T13:05:31;15.98;;;12.88;;
23290;SDS011;11814;44.686;10.842;2023-12-07T13:07:58;21.15;;;13.85;;
23290;SDS011;11814;44.686;10.842;2023-12-07T13:10:25;17.67;;;13.27;;
23290;SDS011;11814;44.686;10.842;2023-12-07T13:12:51;21.05;;;14.80;;
23290;SDS011;11814;44.686;10.842;2023-12-07T13:15:16;17.63;;;13.20;;
23290;SDS011;11814;44.686;10.842;2023-12-07T13:17:42;24.05;;;15.40;;
23290;SDS011;11814;44.686;10.842;2023-12-07T13:20:09;28.33;;;14.75;;
23290;SDS011;11814;44.686;10.842;2023-12-07T13:22:36;21.48;;;14.15;;
23290;SDS011;11814;44.686;10.842;2023-12-07T13:25:03;32.83;;;14.40;;
23290;SDS011;11814;44.686;10.842;2023-12-07T13:27:30;18.98;;;13.80;;
23290;SDS011;11814;44.686;10.842;2023-12-07T13:29:57;16.00;;;13.10;;
23290;SDS011;11814;44.686;10.842;2023-12-07T13:32:22;16.02;;;12.63;;
23290;SDS011;11814;44.686;10.842;2023-12-07T13:34:48;16.10;;;12.90;;
23290;SDS011;11814;44.686;10.842;2023-12-07T13:37:14;17.85;;;13.80;;
23290;SDS011;11814;44.686;10.842;2023-12-07T13:39:40;17.95;;;12.90;;
23290;SDS011;11814;44.686;10.842;2023-12-07T13:42:07;17.75;;;12.68;;
23290;SDS011;11814;44.686;10.842;2023-12-07T13:44:35;16.02;;;12.27;;
23290;SDS011;11814;44.686;10.842;2023-12-07T13:47:00;14.73;;;11.73;;
23290;SDS011;11814;44.686;10.842;2023-12-07T13:49:27;15.18;;;11.13;;
23290;SDS011;11814;44.686;10.842;2023-12-07T13:51:52;14.65;;;11.80;;
23290;SDS011;11814;44.686;10.842;2023-12-07T13:54:18;17.92;;;11.00;;
23290;SDS011;11814;44.686;10.842;2023-12-07T13:56:43;15.93;;;11.80;;
23290;SDS011;11814;44.686;10.842;2023-12-07T13:59:09;19.75;;;12.25;;
23290;SDS011;11814;44.686;10.842;2023-12-07T14:01:37;17.60;;;12.27;;
23290;SDS011;11814;44.686;10.842;2023-12-07T14:04:04;19.00;;;11.98;;
23290;SDS011;11814;44.686;10.842;2023-12-07T14:06:31;15.13;;;11.50;;
23290;SDS011;11814;44.686;10.842;2023-12-07T14:09:00;15.30;;;11.60;;
23290;SDS011;11814;44.686;10.842;2023-12-07T14:11:26;22.67;;;14.05;;
23290;SDS011;11814;44.686;10.842;2023-12-07T14:13:51;15.13;;;11.02;;